M I D A S
Marine Information and Data Acquisition System
Tripno 1449 of the Zeeleeuw from 2008-04-01 04:05:47 to 2008-04-01 08:47:36
Back to CruiseResearch ActivitiesStationsMapUnderway DataData graphs

EquipmentUnitsComment
TimeDGPSUTC
LatitudeDGPSDM.mWGS84
LongitudeDGPSDM.mWGS84
TemperatureSBE03/SBE38deg celciusITS90
ConductivitySBE21S/mITS90
SalinitySBE21 Practical Salinity Units
ChlorophylAChelsea fluorimeterg/lCalibrated in Aceton
Missing or incorrect values are displayed as -999
Sea surface data collected by the RV Zeeleeuw from 2008-04-01 03:59:59 to 2008-04-01 08:56:44
Time Latitude Longitude Temperature Conductivity Salinity ChlorophylA
2008-04-01 04:01:04 51°13.644 2°55.998 14.8238 0.153047 0.830857 -1.731873
2008-04-01 04:02:03 51°13.643 2°55.999 14.8271 0.153047 0.830886 -1.766697
2008-04-01 04:03:04 51°13.643 2°55.998 14.8304 0.153047 0.830914 -1.731873
2008-04-01 04:04:03 51°13.643 2°55.998 14.8348 0.153047 0.830943 -1.731873
2008-04-01 04:05:04 51°13.644 2°55.998 14.8386 0.153047 0.830971 -1.731873
2008-04-01 04:06:03 51°13.645 2°55.998 14.8428 0.153047 0.831 -1.731873
2008-04-01 04:07:04 51°13.644 2°55.997 14.8471 0.153047 0.831028 -1.731873
2008-04-01 04:08:04 51°13.658 2°55.948 14.8519 0.153047 0.831057 -1.731873
2008-04-01 04:09:04 51°13.681 2°55.849 14.8561 0.153047 0.831085 -1.731873
2008-04-01 04:10:03 51°13.699 2°55.762 14.8605 0.153047 0.831099 -1.731873
2008-04-01 04:11:03 51°13.704 2°55.711 14.8645 0.153047 0.831128 -1.731873
2008-04-01 04:12:04 51°13.718 2°55.716 14.8686 0.153047 0.831171 -1.731873
2008-04-01 04:13:03 51°13.753 2°55.705 14.8725 0.153047 0.831213 -1.731873
2008-04-01 04:14:04 51°13.802 2°55.661 14.8763 0.152944 0.830657 -1.731873
2008-04-01 04:15:03 51°13.863 2°55.616 14.8801 0.152944 0.830728 -1.731873
2008-04-01 04:16:04 51°13.934 2°55.56 14.8843 0.152944 0.83077 -1.731873
2008-04-01 04:17:03 51°14.007 2°55.505 14.8886 0.152944 0.830813 -1.731873
2008-04-01 04:18:03 51°14.087 2°55.441 14.8931 0.152944 0.83087 -1.731873
2008-04-01 04:19:05 51°14.199 2°55.339 14.8979 0.152944 0.830927 -1.731873
2008-04-01 04:20:03 51°14.312 2°55.202 14.9024 0.152944 0.830998 -1.697049
2008-04-01 04:21:04 51°14.403 2°55.012 14.9073 0.152944 0.83107 -1.731873
2008-04-01 04:22:03 51°14.466 2°54.769 14.9117 0.152944 0.831084 -1.731873
2008-04-01 04:23:04 51°14.538 2°54.467 14.9162 0.152841 0.830584 -1.731873
2008-04-01 04:24:03 51°14.595 2°54.152 14.9195 0.152841 0.830655 -1.731873
2008-04-01 04:25:04 51°14.655 2°53.825 14.9242 0.152841 0.830741 -1.731873
2008-04-01 04:26:03 51°14.703 2°53.509 14.928 0.152841 0.83084 -1.731873
2008-04-01 04:27:04 51°14.754 2°53.184 14.9321 0.152841 0.830926 -1.731873
2008-04-01 04:28:03 51°14.803 2°52.869 14.9363 0.152738 0.83044 -1.731873
2008-04-01 04:29:03 51°14.848 2°52.545 14.9412 0.152738 0.830526 -1.731873
2008-04-01 04:30:04 51°14.894 2°52.213 14.945 0.152738 0.830654 -1.766697
2008-04-01 04:31:03 51°14.936 2°51.892 14.9499 0.152738 0.830768 -1.731873
2008-04-01 04:32:04 51°14.977 2°51.56 14.9548 0.152635 0.83031 -1.731873
2008-04-01 04:33:04 51°15.018 2°51.233 14.9594 0.152635 0.83041 -1.731873
2008-04-01 04:34:04 51°15.077 2°50.912 14.9648 0.152635 0.830539 -1.731873
2008-04-01 04:35:04 51°15.135 2°50.591 14.9702 0.152635 0.830653 -1.731873
2008-04-01 04:36:04 51°15.189 2°50.267 14.9752 0.152532 0.83018 -1.731873
2008-04-01 04:37:04 51°15.243 2°49.944 14.9802 0.152532 0.830309 -1.731873
2008-04-01 04:38:04 51°15.297 2°49.624 14.9854 0.152532 0.830423 -1.731873
2008-04-01 04:39:04 51°15.354 2°49.304 14.9901 0.152532 0.830537 -1.731873
2008-04-01 04:40:04 51°15.411 2°48.984 14.9954 0.152429 0.830065 -1.731873
2008-04-01 04:41:04 51°15.467 2°48.667 15.0007 0.152429 0.830222 -1.731873
2008-04-01 04:42:04 51°15.521 2°48.351 15.006 0.152429 0.830336 -1.731873
2008-04-01 04:43:04 51°15.576 2°48.035 15.0117 0.15243 0.830494 -1.766697
2008-04-01 04:44:04 51°15.633 2°47.717 15.0181 0.152327 0.830049 -1.697049
2008-04-01 04:45:04 51°15.71 2°47.406 15.0246 0.152327 0.830178 -1.731873
2008-04-01 04:46:04 51°15.783 2°47.092 15.0314 0.152327 0.830335 -1.731873
2008-04-01 04:47:04 51°15.858 2°46.779 15.0385 0.152224 0.829877 -1.731873
2008-04-01 04:48:04 51°15.94 2°46.473 15.0444 0.152224 0.830063 -1.731873
2008-04-01 04:49:04 51°16.021 2°46.171 15.0514 0.152224 0.830191 -1.731873
2008-04-01 04:50:04 51°16.101 2°45.871 15.0586 0.152121 0.82979 -1.731873
2008-04-01 04:51:04 51°16.189 2°45.58 15.0656 0.152121 0.829947 -1.731873
2008-04-01 04:52:04 51°16.293 2°45.304 15.0726 0.152121 0.830119 -1.731873
2008-04-01 04:53:04 51°16.403 2°45.031 15.0803 0.152018 0.829703 -1.731873
2008-04-01 04:54:04 51°16.518 2°44.764 15.0887 0.152018 0.829889 -1.731873
2008-04-01 04:55:04 51°16.629 2°44.491 15.0973 0.152018 0.830061 -1.731873
2008-04-01 04:56:04 51°16.741 2°44.217 15.1053 0.151915 0.829644 -1.731873
2008-04-01 04:57:04 51°16.854 2°43.942 15.1132 0.151915 0.829816 -1.731873
2008-04-01 04:58:04 51°16.969 2°43.669 15.1208 0.151812 0.829385 -1.731873
2008-04-01 04:59:04 51°17.083 2°43.394 15.1286 0.151812 0.8296 -1.731873
2008-04-01 05:00:04 51°17.198 2°43.122 15.1365 0.151812 0.829758 -1.731873
2008-04-01 05:01:04 51°17.317 2°42.857 15.1443 0.151709 0.82937 -1.731873
2008-04-01 05:02:04 51°17.443 2°42.597 15.1528 0.151709 0.829599 -1.731873
2008-04-01 05:03:04 51°17.567 2°42.33 15.1614 0.151606 0.829211 -1.731873
2008-04-01 05:04:04 51°17.688 2°42.059 15.17 0.151606 0.829412 -1.766697
2008-04-01 05:05:04 51°17.808 2°41.787 15.1792 0.151606 0.829599 -1.731873
2008-04-01 05:06:04 51°17.928 2°41.514 15.1878 0.151503 0.829225 -1.731873
2008-04-01 05:07:04 51°18.049 2°41.244 15.1968 0.151503 0.829426 -1.731873
2008-04-01 05:08:04 51°18.169 2°40.974 15.2055 0.1514 0.829037 -1.731873
2008-04-01 05:09:04 51°18.291 2°40.707 15.2151 0.1514 0.829252 -1.731873
2008-04-01 05:10:04 51°18.412 2°40.438 15.2241 0.1514 0.829439 -1.766697
2008-04-01 05:11:04 51°18.533 2°40.17 15.2329 0.151297 0.82905 -1.731873
2008-04-01 05:12:04 51°18.656 2°39.902 15.2419 0.151297 0.829266 -1.731873
2008-04-01 05:13:04 51°18.778 2°39.633 15.2505 0.151195 0.828877 -1.731873
2008-04-01 05:14:04 51°18.899 2°39.365 15.2592 0.151195 0.829064 -1.731873
2008-04-01 05:15:04 51°19.019 2°39.097 15.2682 0.151092 0.828718 -1.731873
2008-04-01 05:16:04 51°19.139 2°38.828 15.2778 0.151092 0.828934 -1.731873
2008-04-01 05:17:04 51°19.26 2°38.559 15.2881 0.150989 0.828573 -1.731873
2008-04-01 05:18:04 51°19.38 2°38.292 15.2975 0.150989 0.828804 -1.731873
2008-04-01 05:19:04 51°19.502 2°38.025 15.3068 0.150989 0.829049 -1.731873
2008-04-01 05:20:02 51°19.62 2°37.768 15.3167 0.150886 0.828702 -1.731873
2008-04-01 05:21:00 51°19.737 2°37.511 15.326 0.150886 0.828904 -1.731873
2008-04-01 05:22:01 51°19.861 2°37.244 15.3362 0.150783 0.828601 -1.697049
2008-04-01 05:23:00 51°19.973 2°37.012 15.3451 0.150783 0.828803 -1.731873
2008-04-01 05:24:00 51°20.039 2°36.931 15.3552 0.15068 0.828471 -1.731873
2008-04-01 05:25:01 51°20.081 2°36.904 15.3662 0.15068 0.828716 -1.731873
2008-04-01 05:26:00 51°20.103 2°36.889 15.3774 0.150577 0.828355 -1.731873
2008-04-01 05:27:01 51°20.112 2°36.895 15.3884 0.150577 0.828586 -1.731873
2008-04-01 05:28:01 51°20.114 2°36.92 15.3998 0.150474 0.828297 -1.731873
2008-04-01 05:29:00 51°20.112 2°36.944 15.4109 0.150474 0.828571 -1.731873
2008-04-01 05:30:00 51°20.111 2°36.966 15.4222 0.150371 0.828253 -1.697049
2008-04-01 05:31:01 51°20.114 2°36.986 15.4347 0.150371 0.828586 -1.731873
2008-04-01 05:32:00 51°20.138 2°36.973 15.4467 0.150268 0.828267 -1.731873
2008-04-01 05:33:01 51°20.151 2°36.925 15.4583 0.150268 0.828543 -1.697049
2008-04-01 05:34:00 51°20.142 2°36.873 15.4695 0.150165 0.828224 -1.731873
2008-04-01 05:35:00 51°20.115 2°36.854 15.4797 0.150063 0.827876 -1.731873
2008-04-01 05:36:01 51°20.103 2°36.867 15.4908 0.150063 0.828137 -1.731873
2008-04-01 05:37:00 51°20.099 2°36.89 15.5022 0.14996 0.827803 -1.731873
2008-04-01 05:38:01 51°20.101 2°36.914 15.5131 0.14996 0.828065 -1.766697
2008-04-01 05:39:01 51°20.108 2°36.936 15.5245 0.149857 0.827731 -1.731873
2008-04-01 05:40:00 51°20.118 2°36.955 15.5359 0.149857 0.827978 -1.731873
2008-04-01 05:41:01 51°20.129 2°36.973 15.5476 0.149754 0.8276 -1.731873
2008-04-01 05:42:01 51°20.139 2°36.989 15.559 0.149754 0.827833 -1.731873
2008-04-01 05:43:00 51°20.151 2°37.005 15.5706 0.149754 0.828051 -1.731873
2008-04-01 05:44:00 51°20.161 2°37.02 15.5818 0.149651 0.827673 -1.766697
2008-04-01 05:45:01 51°20.172 2°37.035 15.5934 0.149651 0.827877 -1.731873
2008-04-01 05:46:00 51°20.183 2°37.05 15.6044 0.149548 0.827484 -1.731873
2008-04-01 05:47:01 51°20.193 2°37.066 15.6157 0.149548 0.827703 -1.731873
2008-04-01 05:48:01 51°20.203 2°37.082 15.6273 0.149445 0.82731 -1.731873
2008-04-01 05:49:00 51°20.214 2°37.098 15.6381 0.149445 0.827514 -1.731873
2008-04-01 05:50:01 51°20.204 2°37.146 15.6494 0.149445 0.827703 -1.731873
2008-04-01 05:51:01 51°20.161 2°37.164 15.6599 0.149342 0.827325 -1.731873
2008-04-01 05:52:00 51°20.14 2°37.12 15.6709 0.149342 0.827573 -1.731873
2008-04-01 05:53:00 51°20.142 2°37.074 15.6811 0.149342 0.827791 -1.731873
2008-04-01 05:54:01 51°20.144 2°37.041 15.6911 0.149239 0.827442 -1.731873
2008-04-01 05:55:00 51°20.146 2°37.02 15.7009 0.149239 0.827675 -1.731873
2008-04-01 05:56:01 51°20.151 2°37.011 15.7111 0.149136 0.827326 -1.731873
2008-04-01 05:57:02 51°20.163 2°37.015 15.7203 0.149136 0.82756 -1.731873
2008-04-01 05:58:03 51°20.177 2°37.024 15.7301 0.149136 0.827779 -1.731873
2008-04-01 05:59:01 51°20.19 2°37.038 15.7407 0.149033 0.8274 -1.731873
2008-04-01 06:00:01 51°20.202 2°37.055 15.751 0.149033 0.827634 -1.731873
2008-04-01 06:01:01 51°20.214 2°37.073 15.7614 0.148931 0.827313 -1.731873
2008-04-01 06:02:01 51°20.227 2°37.092 15.7716 0.148931 0.827606 -1.731873
2008-04-01 06:03:01 51°20.24 2°37.11 15.7818 0.148828 0.827329 -1.731873
2008-04-01 06:04:01 51°20.252 2°37.126 15.7919 0.148828 0.827695 -1.731873
2008-04-01 06:05:01 51°20.268 2°37.116 15.8023 0.148725 0.827432 -1.731873
2008-04-01 06:06:01 51°20.274 2°37.084 15.8118 0.148725 0.827755 -1.731873
2008-04-01 06:07:00 51°20.265 2°37.056 15.8208 0.148622 0.827522 -1.731873
2008-04-01 06:08:01 51°20.252 2°37.044 15.8298 0.148622 0.827815 -1.731873
2008-04-01 06:09:00 51°20.249 2°37.046 15.839 0.148519 0.827509 -1.731873
2008-04-01 06:10:01 51°20.252 2°37.052 15.8491 0.148416 0.827173 -1.731873
2008-04-01 06:11:00 51°20.256 2°37.052 15.8592 0.148416 0.827423 -1.731873
2008-04-01 06:12:01 51°20.259 2°37.039 15.8692 0.148416 0.827658 -1.731873
2008-04-01 06:13:01 51°20.257 2°37.019 15.8788 0.148313 0.827248 -1.731873
2008-04-01 06:14:01 51°20.251 2°37 15.8884 0.148313 0.827454 -1.731873
2008-04-01 06:15:01 51°20.243 2°36.991 15.8981 0.14821 0.827044 -1.731873
2008-04-01 06:16:01 51°20.235 2°36.992 15.907 0.14821 0.827235 -1.731873
2008-04-01 06:17:01 51°20.232 2°37.002 15.9159 0.14821 0.827426 -1.731873
2008-04-01 06:18:00 51°20.234 2°37.025 15.9249 0.148107 0.827016 -1.731873
2008-04-01 06:19:01 51°20.242 2°37.055 15.9341 0.148107 0.827208 -1.731873
2008-04-01 06:20:00 51°20.233 2°37.093 15.9436 0.148107 0.827414 -1.731873
2008-04-01 06:21:01 51°20.21 2°37.118 15.9525 0.148004 0.827121 -1.731873
2008-04-01 06:22:01 51°20.193 2°37.118 15.9622 0.148004 0.827446 -1.731873
2008-04-01 06:23:01 51°20.195 2°37.115 15.9717 0.147901 0.827168 -1.731873
2008-04-01 06:24:01 51°20.206 2°37.11 15.9809 0.147901 0.827478 -1.731873
2008-04-01 06:25:01 51°20.215 2°37.099 15.9896 0.147799 0.827155 -1.731873
2008-04-01 06:26:01 51°20.219 2°37.087 15.9979 0.147799 0.827406 -1.731873
2008-04-01 06:27:01 51°20.218 2°37.078 16.0059 0.147696 0.827025 -1.731873
2008-04-01 06:28:01 51°20.214 2°37.067 16.0139 0.147696 0.827246 -1.731873
2008-04-01 06:29:01 51°20.207 2°37.056 16.022 0.147593 0.82685 -1.731873
2008-04-01 06:30:01 51°20.198 2°37.045 16.0301 0.147593 0.827042 -1.731873
2008-04-01 06:31:01 51°20.187 2°37.034 16.0385 0.147593 0.827234 -1.731873
2008-04-01 06:32:01 51°20.185 2°37.035 16.046 0.14749 0.826808 -1.731873
2008-04-01 06:33:01 51°20.193 2°37.045 16.0544 0.14749 0.827 -1.731873
2008-04-01 06:34:01 51°20.208 2°37.064 16.063 0.14749 0.827208 -1.731873
2008-04-01 06:35:01 51°20.223 2°37.089 16.0713 0.147387 0.826796 -1.731873
2008-04-01 06:36:01 51°20.239 2°37.113 16.0801 0.147387 0.826974 -1.731873
2008-04-01 06:37:01 51°20.259 2°37.104 16.0889 0.147387 0.827196 -1.731873
2008-04-01 06:38:01 51°20.265 2°37.069 16.0967 0.147284 0.826813 -1.731873
2008-04-01 06:39:01 51°20.262 2°37.053 16.1045 0.147284 0.82708 -1.731873
2008-04-01 06:40:01 51°20.257 2°37.052 16.1123 0.147284 0.827347 -1.731873
2008-04-01 06:41:01 51°20.255 2°37.055 16.1204 0.147181 0.82698 -1.731873
2008-04-01 06:42:00 51°20.247 2°37.056 16.1282 0.147181 0.827187 -1.731873
2008-04-01 06:43:01 51°20.238 2°37.056 16.1358 0.147181 0.827395 -1.731873
2008-04-01 06:44:01 51°20.236 2°37.057 16.1436 0.147078 0.826983 -1.731873
2008-04-01 06:45:00 51°20.237 2°37.057 16.1515 0.147078 0.827176 -1.731873
2008-04-01 06:46:01 51°20.241 2°37.054 16.1592 0.146975 0.826748 -1.731873
2008-04-01 06:47:01 51°20.249 2°37.051 16.1677 0.146975 0.826927 -1.731873
2008-04-01 06:48:01 51°20.257 2°37.047 16.1765 0.146975 0.82712 -1.731873
2008-04-01 06:49:01 51°20.265 2°37.043 16.1843 0.146872 0.826692 -1.731873
2008-04-01 06:50:01 51°20.273 2°37.036 16.1929 0.146872 0.826871 -1.731873
2008-04-01 06:51:01 51°20.274 2°37.023 16.2008 0.146872 0.827049 -1.766697
2008-04-01 06:52:00 51°20.272 2°37.012 16.2081 0.146872 0.827243 -1.731873
2008-04-01 06:53:01 51°20.265 2°37.009 16.2152 0.146769 0.826815 -1.731873
2008-04-01 06:54:01 51°20.259 2°37.016 16.2228 0.146769 0.826993 -1.731873
2008-04-01 06:55:00 51°20.251 2°37.027 16.2299 0.146769 0.827172 -1.731873
2008-04-01 06:56:01 51°20.243 2°37.038 16.238 0.146667 0.826744 -1.731873
2008-04-01 06:57:00 51°20.237 2°37.044 16.2456 0.146667 0.826923 -1.731873
2008-04-01 06:58:01 51°20.237 2°37.04 16.2535 0.146667 0.827116 -1.731873
2008-04-01 06:59:00 51°20.241 2°37.029 16.2618 0.146564 0.826688 -1.731873
2008-04-01 07:00:01 51°20.243 2°37.022 16.2697 0.146564 0.826867 -1.731873
2008-04-01 07:01:01 51°20.243 2°37.018 16.277 0.146564 0.827031 -1.731873
2008-04-01 07:02:00 51°20.242 2°37.02 16.285 0.146564 0.827195 -1.731873
2008-04-01 07:03:01 51°20.241 2°37.025 16.2926 0.146461 0.826766 -1.731873
2008-04-01 07:04:01 51°20.238 2°37.028 16.2996 0.146461 0.826931 -1.731873
2008-04-01 07:05:01 51°20.233 2°37.026 16.3078 0.146461 0.827095 -1.731873
2008-04-01 07:06:01 51°20.232 2°37.028 16.3148 0.146358 0.826666 -1.731873
2008-04-01 07:07:01 51°20.244 2°37.037 16.3223 0.146358 0.826815 -1.731873
2008-04-01 07:08:00 51°20.263 2°37.054 16.3307 0.146358 0.82698 -1.697049
2008-04-01 07:09:01 51°20.284 2°37.078 16.3385 0.146358 0.827144 -1.731873
2008-04-01 07:10:01 51°20.304 2°37.107 16.3463 0.146255 0.826715 -1.731873
2008-04-01 07:11:01 51°20.323 2°37.139 16.3533 0.146255 0.826939 -1.731873
2008-04-01 07:12:01 51°20.34 2°37.174 16.3606 0.146255 0.827239 -1.731873
2008-04-01 07:13:01 51°20.366 2°37.192 16.3672 0.146152 0.826974 -1.731873
2008-04-01 07:14:01 51°20.403 2°37.167 16.3704 0.146152 0.827348 -1.697049
2008-04-01 07:15:00 51°20.434 2°37.115 16.3719 0.146049 0.827098 -1.731873
2008-04-01 07:16:01 51°20.457 2°37.083 16.3743 0.146049 0.827444 -1.697049
2008-04-01 07:17:01 51°20.471 2°37.059 16.3747 0.145946 0.827148 -1.697049
2008-04-01 07:18:01 51°20.46 2°37.033 16.3736 0.145946 0.827479 -1.731873
2008-04-01 07:19:01 51°20.415 2°37.046 16.3725 0.145843 0.827123 -1.731873
2008-04-01 07:20:01 51°20.354 2°37.051 16.3725 0.145843 0.827484 -1.731873
2008-04-01 07:21:01 51°20.288 2°37.04 16.3736 0.14574 0.827219 -1.731873
2008-04-01 07:22:00 51°20.238 2°37.028 16.3753 0.14574 0.827565 -1.731873
2008-04-01 07:23:01 51°20.201 2°37.015 16.3777 0.145638 0.827255 -1.731873
2008-04-01 07:24:01 51°20.192 2°37.01 16.381 0.145535 0.826959 -1.766697
2008-04-01 07:25:01 51°20.204 2°37.011 16.3852 0.145535 0.827245 -1.731873
2008-04-01 07:26:01 51°20.224 2°37.025 16.3899 0.145432 0.826889 -1.731873
2008-04-01 07:27:01 51°20.246 2°37.045 16.3955 0.145432 0.827161 -1.731873
2008-04-01 07:28:01 51°20.267 2°37.07 16.4026 0.145329 0.826804 -1.731873
2008-04-01 07:29:01 51°20.289 2°37.098 16.4102 0.145329 0.827106 -1.731873
2008-04-01 07:30:01 51°20.31 2°37.131 16.4189 0.145226 0.826795 -1.731873
2008-04-01 07:31:01 51°20.332 2°37.165 16.4281 0.145226 0.827112 -1.731873
2008-04-01 07:32:01 51°20.353 2°37.2 16.4362 0.145123 0.826876 -1.731873
2008-04-01 07:33:01 51°20.375 2°37.236 16.4436 0.145123 0.827285 -1.731873
2008-04-01 07:34:01 51°20.396 2°37.27 16.4491 0.14502 0.827079 -1.731873
2008-04-01 07:35:01 51°20.418 2°37.304 16.4532 0.14502 0.827473 -1.697049
2008-04-01 07:36:00 51°20.44 2°37.317 16.4559 0.144917 0.827283 -1.697049
2008-04-01 07:37:01 51°20.442 2°37.284 16.459 0.144917 0.827677 -1.731873
2008-04-01 07:38:00 51°20.411 2°37.298 16.4612 0.144814 0.827396 -1.731873
2008-04-01 07:39:01 51°20.333 2°37.391 16.4625 0.144711 0.827084 -1.766697
2008-04-01 07:40:01 51°20.212 2°37.497 16.4658 0.144711 0.827403 -1.731873
2008-04-01 07:41:00 51°20.099 2°37.664 16.4681 0.144608 0.826985 -1.731873
2008-04-01 07:42:01 51°19.982 2°37.847 16.4706 0.144608 0.827213 -1.731873
2008-04-01 07:43:00 51°19.869 2°38.026 16.4733 0.144506 0.826809 -1.766697
2008-04-01 07:44:01 51°19.751 2°38.208 16.4764 0.144506 0.826992 -1.731873
2008-04-01 07:45:00 51°19.637 2°38.386 16.4799 0.144403 0.826573 -1.731873
2008-04-01 07:46:01 51°19.523 2°38.574 16.4836 0.144403 0.82677 -1.731873
2008-04-01 07:47:00 51°19.421 2°38.772 16.4871 0.144403 0.826938 -1.731873
2008-04-01 07:48:01 51°19.318 2°38.98 16.4906 0.1443 0.826503 -1.766697
2008-04-01 07:49:01 51°19.218 2°39.185 16.4948 0.1443 0.826717 -1.731873
2008-04-01 07:50:00 51°19.119 2°39.386 16.4986 0.1443 0.826884 -1.731873
2008-04-01 07:51:01 51°19.017 2°39.593 16.5033 0.144197 0.826465 -1.766697
2008-04-01 07:52:00 51°18.917 2°39.792 16.5077 0.144197 0.826648 -1.731873
2008-04-01 07:53:01 51°18.813 2°39.999 16.5123 0.144197 0.826846 -1.731873
2008-04-01 07:54:01 51°18.71 2°40.204 16.5168 0.144094 0.826411 -1.766697
2008-04-01 07:55:01 51°18.608 2°40.41 16.5207 0.144094 0.826594 -1.731873
2008-04-01 07:56:01 51°18.505 2°40.62 16.5258 0.144094 0.826762 -1.731873
2008-04-01 07:57:01 51°18.4 2°40.826 16.5304 0.143991 0.826327 -1.731873
2008-04-01 07:58:00 51°18.298 2°41.031 16.536 0.143991 0.826494 -1.731873
2008-04-01 07:59:00 51°18.191 2°41.241 16.5404 0.143991 0.826647 -1.731873
2008-04-01 08:00:01 51°18.084 2°41.445 16.5461 0.143991 0.82683 -1.731873
2008-04-01 08:01:00 51°17.982 2°41.642 16.551 0.143888 0.826364 -1.731873
2008-04-01 08:02:01 51°17.877 2°41.847 16.5565 0.143888 0.826532 -1.731873
2008-04-01 08:03:00 51°17.778 2°42.047 16.5618 0.143888 0.826685 -1.731873
2008-04-01 08:04:00 51°17.676 2°42.251 16.567 0.143888 0.826869 -1.731873
2008-04-01 08:05:00 51°17.566 2°42.467 16.5724 0.143785 0.826448 -1.731873
2008-04-01 08:06:00 51°17.455 2°42.686 16.5775 0.143785 0.826586 -1.731873
2008-04-01 08:07:00 51°17.346 2°42.918 16.5828 0.143785 0.826739 -1.766697
2008-04-01 08:08:01 51°17.23 2°43.176 16.5886 0.143682 0.826272 -1.731873
2008-04-01 08:09:01 51°17.116 2°43.426 16.5937 0.143682 0.826456 -1.731873
2008-04-01 08:10:01 51°17 2°43.674 16.6001 0.143682 0.826609 -1.731873
2008-04-01 08:11:01 51°16.886 2°43.922 16.6057 0.143682 0.826762 -1.731873
2008-04-01 08:12:00 51°16.775 2°44.164 16.6107 0.143579 0.826295 -1.731873
2008-04-01 08:13:00 51°16.664 2°44.414 16.6164 0.143579 0.826448 -1.731873
2008-04-01 08:14:00 51°16.553 2°44.661 16.6216 0.143579 0.826602 -1.731873
2008-04-01 08:15:01 51°16.44 2°44.912 16.6278 0.143579 0.826755 -1.731873
2008-04-01 08:16:01 51°16.335 2°45.165 16.6326 0.143476 0.826288 -1.766697
2008-04-01 08:17:01 51°16.232 2°45.421 16.6384 0.143476 0.826441 -1.731873
2008-04-01 08:18:01 51°16.126 2°45.678 16.6446 0.143476 0.82661 -1.731873
2008-04-01 08:19:01 51°16.029 2°45.945 16.6503 0.143374 0.826127 -1.731873
2008-04-01 08:20:01 51°15.954 2°46.237 16.6559 0.143374 0.826311 -1.731873
2008-04-01 08:21:01 51°15.888 2°46.541 16.6623 0.143374 0.826465 -1.766697
2008-04-01 08:22:01 51°15.828 2°46.855 16.6683 0.143374 0.826603 -1.731873
2008-04-01 08:23:00 51°15.774 2°47.167 16.674 0.143271 0.826135 -1.766697
2008-04-01 08:24:01 51°15.721 2°47.489 16.6798 0.143271 0.826304 -1.731873
2008-04-01 08:25:01 51°15.668 2°47.805 16.6851 0.143271 0.826473 -1.731873
2008-04-01 08:26:00 51°15.615 2°48.115 16.6903 0.143271 0.826627 -1.731873
2008-04-01 08:27:01 51°15.559 2°48.432 16.6963 0.143168 0.826189 -1.731873
2008-04-01 08:28:00 51°15.518 2°48.751 16.7018 0.143168 0.826343 -1.731873
2008-04-01 08:29:01 51°15.477 2°49.083 16.7077 0.143168 0.826497 -1.731873
2008-04-01 08:30:00 51°15.451 2°49.412 16.7131 0.143168 0.826666 -1.731873
2008-04-01 08:31:00 51°15.424 2°49.747 16.7183 0.143065 0.826152 -1.731873
2008-04-01 08:32:01 51°15.394 2°50.085 16.7241 0.143065 0.826321 -1.731873
2008-04-01 08:33:00 51°15.367 2°50.411 16.7288 0.143065 0.82649 -1.766697
2008-04-01 08:34:01 51°15.341 2°50.748 16.7341 0.143065 0.826644 -1.731873
2008-04-01 08:35:00 51°15.322 2°51.079 16.7389 0.142962 0.826191 -1.731873
2008-04-01 08:36:01 51°15.302 2°51.422 16.7434 0.142962 0.826376 -1.731873
2008-04-01 08:37:00 51°15.274 2°51.762 16.7486 0.142962 0.82653 -1.766697
2008-04-01 08:38:01 51°15.211 2°52.099 16.7536 0.142859 0.826076 -1.731873
2008-04-01 08:39:00 51°15.13 2°52.409 16.759 0.142859 0.826246 -1.766697
2008-04-01 08:40:01 51°15.044 2°52.728 16.7649 0.142859 0.826416 -1.731873
2008-04-01 08:41:01 51°14.96 2°53.044 16.771 0.142859 0.826585 -1.731873
2008-04-01 08:42:00 51°14.877 2°53.35 16.7758 0.142756 0.826131 -1.766697
2008-04-01 08:43:01 51°14.787 2°53.659 16.7818 0.142756 0.826317 -1.731873
2008-04-01 08:44:00 51°14.7 2°53.961 16.787 0.142756 0.826471 -1.766697
2008-04-01 08:45:01 51°14.612 2°54.276 16.7926 0.142653 0.826032 -1.766697
2008-04-01 08:46:00 51°14.525 2°54.581 16.7978 0.142653 0.826218 -1.731873
2008-04-01 08:47:01 51°14.426 2°54.892 16.8025 0.142653 0.826387 -1.731873
2008-04-01 08:48:01 51°14.308 2°55.164 16.8071 0.14255 0.825964 -1.731873
2008-04-01 08:49:01 51°14.164 2°55.371 16.8122 0.14255 0.826165 -1.731873
2008-04-01 08:50:01 51°14.046 2°55.469 16.8167 0.14255 0.826289 -1.731873
2008-04-01 08:51:04 51°13.936 2°55.553 16.8203 0.142447 0.82585 -1.731873
2008-04-01 08:52:04 51°13.842 2°55.62 16.8246 0.142447 0.826035 -1.731873
2008-04-01 08:53:04 51°13.763 2°55.71 16.8284 0.142447 0.826221 -1.731873
2008-04-01 08:54:03 51°13.71 2°55.806 16.8315 0.142344 0.825766 -1.731873
2008-04-01 08:55:03 51°13.68 2°55.892 16.8352 0.142344 0.825936 -1.731873
2008-04-01 08:56:02 51°13.667 2°55.945 16.8382 0.142344 0.826091 -1.731873